Time;durP1;ratioP1;P1;durP2;ratioP2;P2;SDS_P1;SDS_P2;PMS_P1;PMS_P2;Temp;Humidity;BMP_temperature;BMP_pressure;BME280_temperature;BME280_humidity;BME280_pressure;Samples;Min_cycle;Max_cycle;Signal;HPM_P1;HPM_P2
2024/03/25 00:01:09;;;;;;;5.18;2.72;;;;;;;4.06;100.00;91788.91;5044961;28;20111;-76
2024/03/25 00:03:35;;;;;;;5.32;2.83;;;;;;;4.21;100.00;91804.66;5047695;28;20481;-76
2024/03/25 00:06:00;;;;;;;5.03;2.88;;;;;;;4.17;100.00;91815.44;5046031;28;20136;-76
2024/03/25 00:08:26;;;;;;;8.00;3.67;;;;;;;3.80;100.00;91800.78;5041049;28;20047;-77
2024/03/25 00:10:51;;;;;;;4.80;2.30;;;;;;;3.71;100.00;91811.16;5042099;28;20538;-77
2024/03/25 00:13:17;;;;;;;3.75;1.80;;;;;;;3.57;100.00;91784.28;5046465;28;20041;-78
2024/03/25 00:15:43;;;;;;;3.50;1.70;;;;;;;3.81;100.00;91820.13;5044316;28;20063;-77
2024/03/25 00:18:11;;;;;;;4.53;2.60;;;;;;;3.69;100.00;91785.19;5042322;28;20512;-78
2024/03/25 00:20:36;;;;;;;7.00;3.90;;;;;;;4.00;100.00;91814.16;5044097;28;20045;-77
2024/03/25 00:23:02;;;;;;;4.50;3.05;;;;;;;4.07;100.00;91798.09;5046574;28;20082;-77
2024/03/25 00:25:27;;;;;;;2.80;1.90;;;;;;;3.92;100.00;91778.03;5046978;28;20052;-77
2024/03/25 00:27:53;;;;;;;1.95;0.93;;;;;;;4.07;100.00;91809.03;5044797;28;20028;-78
2024/03/25 00:30:19;;;;;;;1.70;0.98;;;;;;;3.96;100.00;91791.91;5044194;28;20073;-77
2024/03/25 00:32:45;;;;;;;1.60;1.20;;;;;;;4.01;100.00;91797.94;5045086;28;20064;-77
2024/03/25 00:35:10;;;;;;;3.05;2.70;;;;;;;3.93;100.00;91765.13;5047307;28;20470;-78
2024/03/25 00:37:36;;;;;;;2.17;1.77;;;;;;;4.19;100.00;91796.47;5046963;28;20121;-78
2024/03/25 00:40:02;;;;;;;2.17;1.75;;;;;;;3.88;100.00;91739.56;5043065;28;20405;-77
2024/03/25 00:42:27;;;;;;;1.63;1.35;;;;;;;4.32;100.00;91787.97;5046219;28;20024;-77
2024/03/25 00:44:53;;;;;;;2.33;0.98;;;;;;;3.65;100.00;91686.78;5044795;28;20025;-77
2024/03/25 00:47:19;;;;;;;1.30;0.98;;;;;;;4.07;100.00;91750.59;5042029;28;20025;-76
2024/03/25 00:49:44;;;;;;;1.63;0.88;;;;;;;4.33;100.00;91802.25;5039781;28;20045;-76
2024/03/25 00:52:09;;;;;;;2.00;1.20;;;;;;;4.15;100.00;91780.06;5047469;28;20029;-75
2024/03/25 00:54:35;;;;;;;3.38;1.70;;;;;;;4.49;100.00;91798.41;5046154;28;20048;-75
2024/03/25 00:57:00;;;;;;;2.05;1.23;;;;;;;4.48;100.00;91783.34;5047013;28;20058;-75
2024/03/25 00:59:26;;;;;;;1.60;1.10;;;;;;;4.55;100.00;91781.53;5045975;28;20123;-75
2024/03/25 01:01:51;;;;;;;1.60;1.50;;;;;;;4.57;100.00;91774.47;5044714;28;20472;-75
2024/03/25 01:04:17;;;;;;;1.20;0.77;;;;;;;4.20;100.00;91736.22;5047330;28;20847;-75
2024/03/25 01:06:43;;;;;;;3.38;3.08;;;;;;;4.32;100.00;91743.97;5044003;28;20029;-75
2024/03/25 01:09:10;;;;;;;2.25;1.58;;;;;;;4.37;100.00;91750.00;5045455;28;20118;-75
2024/03/25 01:11:35;;;;;;;1.55;1.08;;;;;;;4.25;100.00;91726.22;5045961;28;20032;-75
2024/03/25 01:14:01;;;;;;;2.10;1.25;;;;;;;4.39;100.00;91735.31;5043217;28;20029;-75
2024/03/25 01:16:26;;;;;;;2.55;2.00;;;;;;;4.10;100.00;91708.75;5039586;28;20496;-75
2024/03/25 01:18:52;;;;;;;2.42;1.65;;;;;;;4.45;100.00;91760.88;5042072;28;20123;-75
2024/03/25 01:21:18;;;;;;;3.60;2.28;;;;;;;4.44;100.00;91757.56;5040028;28;20060;-77
2024/03/25 01:23:43;;;;;;;4.47;2.83;;;;;;;4.45;100.00;91764.22;5045065;28;20029;-77
2024/03/25 01:26:09;;;;;;;4.43;3.22;;;;;;;4.44;100.00;91774.59;5045947;28;20036;-77
2024/03/25 01:28:34;;;;;;;5.90;4.50;;;;;;;4.25;100.00;91738.94;5045342;28;20056;-76
2024/03/25 01:31:00;;;;;;;9.48;6.30;;;;;;;4.46;100.00;91777.69;5044212;28;20148;-76
2024/03/25 01:33:25;;;;;;;8.05;5.55;;;;;;;4.30;100.00;91735.78;5046617;28;20083;-75
2024/03/25 01:35:51;;;;;;;7.00;4.95;;;;;;;4.30;100.00;91733.25;5045755;28;20068;-75
2024/03/25 01:38:16;;;;;;;8.57;5.30;;;;;;;4.26;100.00;91718.41;5046654;28;20036;-77
2024/03/25 01:40:42;;;;;;;7.80;4.80;;;;;;;4.53;100.00;91748.69;5043731;28;20075;-77
2024/03/25 01:43:07;;;;;;;6.60;4.47;;;;;;;4.29;100.00;91707.03;5042549;28;20499;-77
2024/03/25 01:45:34;;;;;;;7.60;4.97;;;;;;;4.36;100.00;91709.53;5042243;28;20033;-76
2024/03/25 01:48:06;;;;;;;7.70;4.75;;;;;;;4.06;100.00;91667.72;5043481;28;20111;-76
2024/03/25 01:50:36;;;;;;;6.30;5.20;;;;;;;4.34;100.00;91719.91;5045164;28;20119;-76
2024/03/25 01:53:02;;;;;;;6.70;4.10;;;;;;;4.31;100.00;91727.97;5041366;28;20483;-75
2024/03/25 01:55:30;;;;;;;8.32;4.57;;;;;;;4.45;100.00;91773.59;5045571;28;20562;-75
2024/03/25 01:57:56;;;;;;;6.20;4.47;;;;;;;4.37;100.00;91762.72;5046003;28;20108;-76
2024/03/25 02:00:24;;;;;;;5.35;4.30;;;;;;;4.18;100.00;91728.84;5042269;28;20037;-75
2024/03/25 02:02:51;;;;;;;6.13;4.28;;;;;;;4.08;100.00;91741.22;5044970;28;20123;-75
2024/03/25 02:05:18;;;;;;;6.25;4.13;;;;;;;3.98;100.00;91765.31;5046190;28;20120;-75
2024/03/25 02:07:44;;;;;;;4.30;3.72;;;;;;;3.90;100.00;91754.63;5046066;28;20029;-75
2024/03/25 02:10:10;;;;;;;4.40;3.45;;;;;;;3.92;100.00;91763.59;5042488;28;20112;-74
2024/03/25 02:12:36;;;;;;;;;;;;;;;3.94;100.00;91766.69;5046993;28;20431;-75
2024/03/25 02:15:05;;;;;;;4.00;2.78;;;;;;;3.77;100.00;91742.75;5046860;28;19920;-74
2024/03/25 02:17:30;;;;;;;4.28;3.13;;;;;;;3.61;100.00;91725.28;5049714;28;21034;-74
2024/03/25 02:19:56;;;;;;;5.72;4.15;;;;;;;3.85;100.00;91762.84;5042423;28;20100;-74
2024/03/25 02:22:21;;;;;;;5.47;4.55;;;;;;;3.97;100.00;91768.03;5049886;28;20025;-74
2024/03/25 02:24:50;;;;;;;4.57;3.28;;;;;;;4.01;100.00;91790.31;5048647;28;20369;-74
2024/03/25 02:27:17;;;;;;;4.78;2.50;;;;;;;3.63;100.00;91764.91;5046220;28;20033;-74
2024/03/25 02:29:44;;;;;;;2.95;2.05;;;;;;;3.19;100.00;91778.16;5047058;28;20029;-74
2024/03/25 02:32:13;;;;;;;2.88;2.08;;;;;;;3.23;100.00;91781.09;5046835;28;20056;-74
2024/03/25 02:34:48;;;;;;;4.10;2.60;;;;;;;2.94;100.00;91739.00;5044993;28;20036;-74
2024/03/25 02:37:13;;;;;;;4.57;3.47;;;;;;;3.18;100.00;91774.84;5043935;28;20044;-74
2024/03/25 02:39:39;;;;;;;4.88;3.92;;;;;;;2.85;100.00;91747.00;5043445;28;20033;-74
2024/03/25 02:42:04;;;;;;;5.95;4.00;;;;;;;2.89;100.00;91736.28;5048973;28;20056;-75
2024/03/25 02:44:31;;;;;;;10.48;6.22;;;;;;;3.21;100.00;91750.84;5048363;28;20033;-74
2024/03/25 02:46:58;;;;;;;6.18;4.13;;;;;;;3.53;100.00;91781.38;5044521;28;20033;-74
2024/03/25 02:49:23;;;;;;;6.28;4.50;;;;;;;3.51;100.00;91783.31;5049770;28;20033;-75
2024/03/25 02:51:49;;;;;;;7.13;4.82;;;;;;;3.66;100.00;91787.38;5047342;28;20033;-74
2024/03/25 02:54:14;;;;;;;6.88;5.15;;;;;;;3.68;100.00;91770.94;5049532;28;20037;-75
2024/03/25 02:56:40;;;;;;;5.13;4.22;;;;;;;3.91;100.00;91784.91;5049063;28;20025;-75
2024/03/25 02:59:06;;;;;;;;;;;;;;;4.17;100.00;91808.56;5047249;28;20047;-75
2024/03/25 03:01:32;;;;;;;7.30;5.55;;;;;;;4.14;100.00;91812.34;5049161;28;19912;-75
2024/03/25 03:03:57;;;;;;;5.32;4.25;;;;;;;4.11;100.00;91794.16;5047819;28;20119;-75
2024/03/25 03:06:23;;;;;;;5.82;4.65;;;;;;;4.25;100.00;91812.63;5047337;28;20063;-75
2024/03/25 03:08:48;;;;;;;4.32;3.47;;;;;;;3.78;100.00;91790.03;5047536;28;20052;-76
2024/03/25 03:11:13;;;;;;;5.35;3.53;;;;;;;3.55;100.00;91788.75;5043620;28;20036;-76
2024/03/25 03:13:39;;;;;;;4.97;3.60;;;;;;;3.97;100.00;91829.81;5048939;28;20036;-76
2024/03/25 03:16:05;;;;;;;6.03;4.30;;;;;;;3.98;100.00;91846.59;5040428;28;20123;-76
2024/03/25 03:18:30;;;;;;;8.85;6.40;;;;;;;4.06;100.00;91845.59;5047854;28;20028;-77
2024/03/25 03:20:56;;;;;;;8.18;6.20;;;;;;;3.90;100.00;91818.13;5048478;28;20045;-76
2024/03/25 03:23:22;;;;;;;11.35;7.60;;;;;;;3.89;100.00;91817.34;5047553;28;20838;-77
2024/03/25 03:25:48;;;;;;;13.73;8.57;;;;;;;3.72;100.00;91778.94;5047484;28;20041;-76
2024/03/25 03:28:14;;;;;;;13.05;8.30;;;;;;;4.23;100.00;91827.31;5043722;28;20112;-77
2024/03/25 03:30:40;;;;;;;;;;;;;;;4.38;100.00;91848.16;5049417;28;20496;-76
2024/03/25 03:33:06;;;;;;;12.55;7.95;;;;;;;4.20;100.00;91830.25;5047863;28;20019;-77
2024/03/25 03:35:33;;;;;;;21.92;13.15;;;;;;;4.28;100.00;91824.94;5047938;28;20493;-76
2024/03/25 03:37:58;;;;;;;8.88;6.05;;;;;;;3.97;100.00;91814.56;5044839;28;20052;-77
2024/03/25 03:40:24;;;;;;;8.10;5.65;;;;;;;3.81;100.00;91826.00;5046439;28;20032;-77
2024/03/25 03:42:49;;;;;;;9.93;6.63;;;;;;;3.37;100.00;91820.66;5044385;28;20540;-77
2024/03/25 03:45:15;;;;;;;13.05;7.40;;;;;;;3.73;100.00;91809.22;5045576;28;20029;-77
2024/03/25 03:47:41;;;;;;;9.27;5.32;;;;;;;3.36;100.00;91765.81;5046716;28;20140;-76
2024/03/25 03:50:07;;;;;;;10.80;5.78;;;;;;;3.60;100.00;91786.41;5043985;28;20059;-76
2024/03/25 03:52:33;;;;;;;11.25;6.22;;;;;;;3.44;100.00;91871.41;5048663;28;20106;-77
2024/03/25 03:54:58;;;;;;;20.52;12.02;;;;;;;3.43;100.00;91831.78;5045709;28;20041;-77
2024/03/25 03:57:25;;;;;;;17.40;10.57;;;;;;;3.91;100.00;91861.13;5044869;28;20072;-76
2024/03/25 03:59:51;;;;;;;12.63;6.78;;;;;;;3.40;100.00;91815.19;5050732;28;20048;-76
2024/03/25 04:02:17;;;;;;;14.02;9.27;;;;;;;3.86;100.00;91866.00;5045386;28;20481;-76
2024/03/25 04:04:42;;;;;;;6.53;4.60;;;;;;;3.64;100.00;91878.97;5046804;28;20119;-76
2024/03/25 04:07:08;;;;;;;9.50;5.18;;;;;;;3.37;100.00;91891.72;5047208;28;20037;-76
2024/03/25 04:09:33;;;;;;;6.63;4.50;;;;;;;3.40;100.00;91881.19;5048044;28;20056;-76
2024/03/25 04:12:00;;;;;;;5.15;3.33;;;;;;;2.71;100.00;91843.41;5045068;28;20881;-76
2024/03/25 04:14:26;;;;;;;5.30;3.10;;;;;;;2.47;100.00;91858.22;5043068;28;20049;-77
2024/03/25 04:17:04;;;;;;;4.95;2.92;;;;;;;2.44;100.00;91876.34;5044091;28;20050;-77
2024/03/25 04:19:30;;;;;;;4.35;3.05;;;;;;;2.27;100.00;91864.03;5044486;28;20119;-76
2024/03/25 04:21:56;;;;;;;3.90;3.03;;;;;;;2.39;100.00;91892.13;5042869;28;20689;-76
2024/03/25 04:24:21;;;;;;;4.10;3.00;;;;;;;2.42;100.00;91905.38;5046215;28;20568;-77
2024/03/25 04:26:47;;;;;;;3.97;2.80;;;;;;;2.57;100.00;91913.59;5047030;28;20068;-77
2024/03/25 04:29:15;;;;;;;3.72;2.92;;;;;;;2.50;100.00;91882.41;5045533;28;20028;-77
2024/03/25 04:31:41;;;;;;;4.72;3.63;;;;;;;2.72;100.00;91931.16;5046443;28;20039;-77
2024/03/25 04:34:06;;;;;;;15.52;9.95;;;;;;;2.34;100.00;91846.31;5045680;28;20386;-77
2024/03/25 04:36:35;;;;;;;5.28;3.63;;;;;;;2.96;100.00;91935.88;5047037;28;20123;-78
2024/03/25 04:39:00;;;;;;;7.28;4.22;;;;;;;3.07;100.00;91935.28;5043223;28;20047;-76
2024/03/25 04:41:26;;;;;;;10.00;7.30;;;;;;;3.25;100.00;91934.72;5047123;28;20029;-76
2024/03/25 04:43:51;;;;;;;7.32;5.47;;;;;;;2.89;100.00;91840.28;5048107;28;20043;-76
2024/03/25 04:46:16;;;;;;;8.70;6.75;;;;;;;3.47;100.00;91894.66;5046817;28;20791;-76
2024/03/25 04:48:42;;;;;;;12.90;9.27;;;;;;;3.76;100.00;91899.47;5044101;28;20048;-76
2024/03/25 04:51:09;;;;;;;12.75;9.93;;;;;;;3.81;100.00;91894.56;5039272;28;20029;-76
2024/03/25 04:53:34;;;;;;;8.70;7.05;;;;;;;3.98;100.00;91871.25;5040465;28;20044;-76
2024/03/25 04:56:00;;;;;;;6.65;5.57;;;;;;;3.57;100.00;91898.53;5046262;28;20484;-76
2024/03/25 04:58:25;;;;;;;7.63;5.25;;;;;;;2.77;100.00;91865.44;5046143;28;20470;-76
2024/03/25 05:00:51;;;;;;;6.55;5.15;;;;;;;2.64;100.00;91840.09;5043897;28;20518;-76
2024/03/25 05:03:16;;;;;;;8.50;5.75;;;;;;;3.26;100.00;91938.00;5046454;28;20036;-77
2024/03/25 05:05:42;;;;;;;10.95;7.90;;;;;;;3.07;100.00;91909.94;5043325;28;20110;-76
2024/03/25 05:08:08;;;;;;;14.60;9.32;;;;;;;3.20;100.00;91896.47;5044345;28;20481;-77
2024/03/25 05:10:34;;;;;;;18.58;11.45;;;;;;;3.36;100.00;91909.69;5043395;28;20370;-76
2024/03/25 05:12:59;;;;;;;20.30;12.05;;;;;;;3.51;100.00;91887.41;5042521;28;20052;-76
2024/03/25 05:15:25;;;;;;;13.00;9.65;;;;;;;3.74;100.00;91947.13;5044486;28;20037;-76
2024/03/25 05:17:50;;;;;;;17.23;10.90;;;;;;;2.92;100.00;91899.97;5044768;28;20037;-76
2024/03/25 05:20:16;;;;;;;19.67;13.27;;;;;;;3.01;100.00;91946.22;5042182;28;20126;-75
2024/03/25 05:22:41;;;;;;;15.23;10.27;;;;;;;3.07;100.00;91945.44;5044822;28;20075;-76
2024/03/25 05:25:07;;;;;;;10.35;7.63;;;;;;;3.13;100.00;91937.06;5046106;28;20059;-76
2024/03/25 05:27:33;;;;;;;9.35;7.05;;;;;;;2.57;100.00;91922.94;5043013;28;20029;-76
2024/03/25 05:29:58;;;;;;;9.82;7.45;;;;;;;2.67;100.00;91956.31;5045536;28;20155;-75
2024/03/25 05:32:24;;;;;;;10.57;7.43;;;;;;;2.95;100.00;91950.31;5043821;28;20041;-75
2024/03/25 05:34:49;;;;;;;12.82;8.02;;;;;;;2.72;100.00;91960.84;5041953;28;20067;-76
2024/03/25 05:37:14;;;;;;;11.63;7.60;;;;;;;2.82;100.00;91953.59;5043074;28;20028;-76
2024/03/25 05:39:43;;;;;;;14.27;9.27;;;;;;;3.06;100.00;91977.63;5044898;28;20025;-76
2024/03/25 05:42:08;;;;;;;9.05;6.85;;;;;;;2.95;100.00;91947.78;5040935;28;20041;-76
2024/03/25 05:44:34;;;;;;;12.23;7.15;;;;;;;2.65;100.00;91960.81;5039884;28;20039;-75
2024/03/25 05:46:59;;;;;;;12.32;7.88;;;;;;;2.83;100.00;92000.03;5041344;28;20067;-75
2024/03/25 05:49:25;;;;;;;13.75;7.82;;;;;;;2.64;100.00;91989.69;5043144;28;20033;-75
2024/03/25 05:51:51;;;;;;;;;;;;;;;2.83;100.00;92003.38;5046207;28;20159;-74
2024/03/25 05:54:16;;;;;;;13.82;9.75;;;;;;;2.77;100.00;91999.84;5044104;28;20526;-75
2024/03/25 05:56:42;;;;;;;12.35;8.27;;;;;;;3.09;100.00;92022.13;5046476;28;20644;-75
2024/03/25 05:59:08;;;;;;;11.93;8.85;;;;;;;2.46;100.00;91993.50;5044487;28;20044;-75
2024/03/25 06:01:35;;;;;;;12.55;9.73;;;;;;;2.64;100.00;91987.13;5044057;28;20124;-75
2024/03/25 06:04:01;;;;;;;12.05;8.90;;;;;;;2.49;100.00;91999.94;5042920;28;20037;-75
2024/03/25 06:06:26;;;;;;;12.80;10.30;;;;;;;2.13;100.00;91973.91;5044748;28;20032;-75
2024/03/25 06:08:52;;;;;;;13.55;10.82;;;;;;;2.26;100.00;92047.44;5044770;28;20041;-75
2024/03/25 06:11:20;;;;;;;16.27;11.73;;;;;;;2.41;100.00;92038.94;5041876;28;20079;-75
2024/03/25 06:13:47;;;;;;;13.57;10.40;;;;;;;2.35;100.00;92012.59;5041347;28;20037;-75
2024/03/25 06:16:13;;;;;;;14.70;11.32;;;;;;;2.39;100.00;92012.97;5041590;28;20044;-75
2024/03/25 06:18:40;;;;;;;;;;;;;;;2.62;100.00;92044.84;5044619;28;20507;-74
2024/03/25 06:21:05;;;;;;;13.95;11.00;;;;;;;1.83;100.00;91957.22;5043840;28;19921;-74
2024/03/25 06:23:31;;;;;;;18.88;14.65;;;;;;;2.71;100.00;92037.84;5040270;28;20037;-75
2024/03/25 06:25:56;;;;;;;14.05;11.40;;;;;;;2.43;100.00;92028.59;5042769;28;20033;-75
2024/03/25 06:28:22;;;;;;;16.60;12.75;;;;;;;2.93;100.00;92049.41;5043212;28;20031;-75
2024/03/25 06:36:18;;;;;;;17.50;12.93;;;;;;;3.07;100.00;92052.00;5044397;28;20542;-76
2024/03/25 06:38:44;;;;;;;;;;;;;;;2.92;100.00;92064.84;5045923;28;20083;-75
2024/03/25 06:41:09;;;;;;;14.43;10.63;;;;;;;2.86;100.00;92058.00;5044807;28;19916;-75
2024/03/25 06:43:36;;;;;;;16.23;11.05;;;;;;;2.78;100.00;92036.13;5041180;28;20496;-75
2024/03/25 06:46:02;;;;;;;15.25;12.10;;;;;;;3.22;100.00;92061.97;5042312;28;20107;-75
2024/03/25 06:48:28;;;;;;;22.20;16.63;;;;;;;3.31;100.00;92027.03;5039924;28;20032;-76
2024/03/25 06:50:57;;;;;;;15.77;12.25;;;;;;;3.73;100.00;92077.63;5039302;28;20036;-75
2024/03/25 06:53:23;;;;;;;14.90;11.27;;;;;;;3.40;100.00;92075.88;5040479;28;20499;-74
2024/03/25 06:55:53;;;;;;;16.33;10.20;;;;;;;3.30;100.00;92026.28;5038807;28;20041;-75
2024/03/25 06:58:24;;;;;;;13.25;10.52;;;;;;;3.59;100.00;92062.41;5044737;28;20029;-73
2024/03/25 07:00:50;;;;;;;15.00;11.20;;;;;;;3.37;100.00;92054.19;5043025;28;20111;-73
2024/03/25 07:03:16;;;;;;;14.88;11.18;;;;;;;3.82;100.00;92057.91;5043232;28;20051;-73
2024/03/25 07:21:04;;;;;;;14.95;11.60;;;;;;;3.98;100.00;92042.25;5046690;28;20884;-72
2024/03/25 07:23:30;;;;;;;14.75;10.70;;;;;;;3.76;100.00;92072.19;5030885;28;20049;-72
2024/03/25 07:25:55;;;;;;;14.75;10.63;;;;;;;3.68;100.00;92062.22;5025447;28;20034;-72
2024/03/25 07:28:21;;;;;;;14.70;10.93;;;;;;;3.87;100.00;92099.53;5031176;28;20032;-72
2024/03/25 07:30:50;;;;;;;16.45;11.10;;;;;;;3.40;100.00;92056.34;5031703;28;20502;-72
2024/03/25 07:33:15;;;;;;;17.52;11.63;;;;;;;3.37;100.00;92063.56;5029212;28;20180;-72
2024/03/25 07:35:41;;;;;;;14.13;11.25;;;;;;;3.63;100.00;92060.25;5024822;28;20041;-72
2024/03/25 07:38:06;;;;;;;13.35;11.30;;;;;;;3.65;100.00;92049.91;5029595;28;20037;-72
2024/03/25 07:40:32;;;;;;;14.52;11.15;;;;;;;2.75;100.00;91945.22;5032198;28;20033;-72
2024/03/25 07:42:58;;;;;;;14.73;11.40;;;;;;;3.58;100.00;92065.13;5028032;28;20151;-72
2024/03/25 07:45:23;;;;;;;10.90;8.88;;;;;;;3.55;100.00;92042.66;5026713;28;20033;-72
2024/03/25 07:47:49;;;;;;;15.05;11.10;;;;;;;3.37;100.00;92017.88;5026975;28;20064;-72
2024/03/25 07:50:14;;;;;;;14.02;9.98;;;;;;;3.55;100.00;92070.59;5026103;28;20029;-73
2024/03/25 07:52:40;;;;;;;12.48;10.15;;;;;;;3.77;100.00;92052.63;5032603;28;20092;-73
2024/03/25 07:55:08;;;;;;;13.23;9.45;;;;;;;4.02;100.00;92080.75;5026896;28;20494;-72
2024/03/25 07:57:34;;;;;;;14.45;10.88;;;;;;;4.12;100.00;92093.84;5034372;28;20037;-72
2024/03/25 08:00:00;;;;;;;12.35;9.77;;;;;;;4.40;100.00;92110.59;5032837;28;20478;-72
2024/03/25 08:02:25;;;;;;;11.38;9.50;;;;;;;4.36;100.00;92088.34;5028741;28;20161;-72
2024/03/25 08:04:51;;;;;;;12.80;9.32;;;;;;;4.46;100.00;92077.75;5027674;28;20030;-72
2024/03/25 08:07:16;;;;;;;10.32;8.95;;;;;;;4.51;100.00;92078.72;5030700;28;20067;-72
2024/03/25 08:09:42;;;;;;;12.75;9.45;;;;;;;4.73;100.00;92108.19;5026149;28;20499;-72
2024/03/25 08:12:07;;;;;;;14.50;11.43;;;;;;;5.21;100.00;92125.63;5026324;28;20033;-72
2024/03/25 08:14:33;;;;;;;12.65;9.75;;;;;;;5.08;100.00;92095.13;5027197;28;20033;-72
2024/03/25 08:16:58;;;;;;;13.00;10.40;;;;;;;5.08;100.00;92116.28;5027998;28;20136;-72
2024/03/25 08:19:25;;;;;;;12.27;9.85;;;;;;;4.76;100.00;92121.28;5027032;28;20041;-72
2024/03/25 08:21:50;;;;;;;11.55;8.88;;;;;;;4.97;100.00;92103.38;5022531;28;20167;-72
2024/03/25 08:24:16;;;;;;;15.07;9.55;;;;;;;5.40;100.00;92147.84;5014442;28;20037;-72
2024/03/25 08:26:41;;;;;;;12.98;10.07;;;;;;;5.64;100.00;92155.75;5013101;28;20143;-72
2024/03/25 08:29:07;;;;;;;11.38;8.88;;;;;;;5.46;100.00;92114.69;5011573;28;20037;-72
2024/03/25 08:31:32;;;;;;;9.18;7.95;;;;;;;5.28;100.00;92129.88;5012946;28;20037;-72
2024/03/25 08:33:58;;;;;;;11.85;9.43;;;;;;;5.29;99.77;92170.44;5017490;28;20025;-72
2024/03/25 08:36:23;;;;;;;9.95;8.63;;;;;;;4.85;100.00;92172.72;5017002;28;20022;-72
2024/03/25 08:38:49;;;;;;;13.93;9.38;;;;;;;5.07;100.00;92149.56;5011543;28;20577;-72
2024/03/25 08:41:15;;;;;;;20.25;13.48;;;;;;;5.47;100.00;92168.97;5013552;28;20037;-72
2024/03/25 08:43:40;;;;;;;9.73;7.43;;;;;;;5.22;98.06;92145.00;5011267;28;20042;-72
2024/03/25 08:46:06;;;;;;;17.80;10.68;;;;;;;5.12;100.00;92138.75;5011833;28;20045;-72
2024/03/25 08:48:31;;;;;;;12.27;9.82;;;;;;;5.55;100.00;92166.19;5012767;28;20056;-72
2024/03/25 08:50:57;;;;;;;13.25;10.13;;;;;;;5.98;100.00;92154.53;5011356;28;20124;-72
2024/03/25 08:53:22;;;;;;;11.23;9.10;;;;;;;6.65;100.00;92163.44;5012354;28;20495;-72
2024/03/25 08:55:48;;;;;;;12.40;10.07;;;;;;;7.05;99.70;92143.59;5014755;28;20050;-72
2024/03/25 08:58:15;;;;;;;12.15;9.45;;;;;;;7.20;95.16;92138.91;5015118;28;20044;-72
2024/03/25 09:00:41;;;;;;;8.48;7.57;;;;;;;7.37;91.07;92191.16;5015041;28;20585;-72
2024/03/25 09:03:08;;;;;;;10.30;6.68;;;;;;;7.44;86.43;92190.09;5019012;28;21042;-72
2024/03/25 09:05:34;;;;;;;8.43;7.25;;;;;;;6.85;89.29;92161.69;5014475;28;20495;-72
2024/03/25 09:07:59;;;;;;;8.95;7.50;;;;;;;6.87;93.05;92178.34;5013349;28;20026;-72
2024/03/25 09:13:09;;;;;;;8.45;7.35;;;;;;;6.05;90.24;92199.63;5014056;28;20505;-72
2024/03/25 09:15:35;;;;;;;10.40;7.65;;;;;;;5.47;89.80;92166.44;5010192;28;20034;-72
2024/03/25 09:18:01;;;;;;;7.88;6.50;;;;;;;5.29;90.17;92088.16;5015177;28;20038;-72
2024/03/25 09:20:26;;;;;;;11.35;8.55;;;;;;;5.91;93.04;92179.28;5011021;28;20072;-72
2024/03/25 09:22:52;;;;;;;19.45;10.93;;;;;;;6.24;94.59;92195.38;5009575;28;20044;-72
2024/03/25 09:25:18;;;;;;;20.60;9.43;;;;;;;5.80;93.30;92182.50;5015075;28;20407;-72
2024/03/25 09:27:47;;;;;;;;;;;;;;;6.07;92.99;92185.69;5010184;28;20041;-72
2024/03/25 09:30:13;;;;;;;10.95;8.23;;;;;;;5.73;94.38;92190.19;5016583;28;19963;-72
2024/03/25 09:32:42;;;;;;;18.10;10.15;;;;;;;5.58;96.83;92165.78;5014206;28;20034;-72
2024/03/25 09:35:08;;;;;;;17.15;9.73;;;;;;;6.00;96.33;92156.88;5015619;28;20668;-72
2024/03/25 09:37:34;;;;;;;;;;;;;;;5.97;92.58;92188.66;5020181;28;20061;-72
2024/03/25 09:39:59;;;;;;;10.00;8.48;;;;;;;5.08;94.86;92051.84;5020605;28;20003;-71
2024/03/25 10:00:41;;;;;;;9.23;7.03;;;;;;;6.12;90.06;92188.41;5105115;27;20740;-71
2024/03/25 10:03:07;;;;;;;11.27;7.80;;;;;;;6.38;93.22;92201.16;5109428;27;20047;-70
2024/03/25 10:05:32;;;;;;;17.38;8.40;;;;;;;6.72;92.31;92203.44;5116458;28;20090;-70
2024/03/25 10:07:58;;;;;;;22.08;7.80;;;;;;;6.40;90.16;92177.00;5112228;27;20028;-70
2024/03/25 10:10:24;;;;;;;18.30;7.72;;;;;;;6.61;88.62;92192.91;5114122;28;20039;-71
2024/03/25 10:12:49;;;;;;;26.13;8.52;;;;;;;5.83;90.41;92171.91;5100065;27;20028;-73
2024/03/25 10:15:16;;;;;;;10.05;7.55;;;;;;;5.93;92.28;92169.66;5106384;28;20408;-73
2024/03/25 10:17:42;;;;;;;18.38;8.07;;;;;;;6.25;90.15;92202.06;5117821;27;20415;-73
2024/03/25 10:20:09;;;;;;;6.57;5.78;;;;;;;5.96;87.96;92204.94;5105909;27;20035;-73
2024/03/25 10:22:42;;;;;;;10.30;7.20;;;;;;;6.45;92.94;92167.94;5112360;28;20118;-73
2024/03/25 10:25:08;;;;;;;8.30;6.28;;;;;;;6.97;90.96;92194.94;5101410;28;20043;-73
2024/03/25 10:27:33;;;;;;;15.68;9.13;;;;;;;7.56;94.00;92167.16;5109262;28;20473;-73
2024/03/25 10:29:59;;;;;;;7.60;6.30;;;;;;;7.70;84.23;92166.97;5112788;27;20062;-73
2024/03/25 10:32:24;;;;;;;9.05;6.20;;;;;;;7.64;82.73;92172.97;5110303;28;20096;-73
2024/03/25 10:34:50;;;;;;;7.03;5.57;;;;;;;7.27;83.32;92200.09;5107670;28;20028;-73
2024/03/25 10:37:17;;;;;;;7.75;5.82;;;;;;;7.41;86.42;92202.53;5108340;28;20039;-73
2024/03/25 10:39:47;;;;;;;7.88;6.03;;;;;;;7.13;84.97;92188.50;5104933;28;20334;-73
2024/03/25 10:42:14;;;;;;;7.03;5.60;;;;;;;7.28;84.59;92213.66;5104868;27;20383;-73
2024/03/25 10:44:40;;;;;;;7.35;5.80;;;;;;;7.01;85.09;92227.50;5107843;28;20039;-73
2024/03/25 10:47:06;;;;;;;;;;;;;;;7.07;85.90;92228.41;5108529;28;20122;-73
2024/03/25 10:49:57;;;;;;;7.88;6.88;;;;;;;6.85;90.63;92212.75;5105911;27;20372;-74
2024/03/25 10:52:24;;;;;;;9.05;7.63;;;;;;;6.78;90.24;92198.28;5119248;28;20039;-73
2024/03/25 10:54:51;;;;;;;8.00;6.18;;;;;;;6.73;89.97;92197.31;5113422;27;20081;-73
2024/03/25 10:57:18;;;;;;;10.65;7.60;;;;;;;6.86;91.45;92207.44;5107021;27;20043;-73
2024/03/25 10:59:45;;;;;;;9.82;7.22;;;;;;;6.63;90.71;92192.72;5099498;28;20658;-73
2024/03/25 11:02:11;;;;;;;22.30;12.73;;;;;;;6.70;92.86;92207.97;5092646;28;20594;-73
2024/03/25 11:04:37;;;;;;;;;;;;;;;6.53;86.41;92223.81;5100942;27;20114;-73
2024/03/25 11:07:10;;;;;;;11.80;8.32;;;;;;;6.41;92.91;92182.88;5104892;28;20352;-73
2024/03/25 11:09:36;;;;;;;20.30;11.20;;;;;;;6.33;90.44;92181.38;5098941;28;20119;-73
2024/03/25 11:12:02;;;;;;;5.63;4.97;;;;;;;6.48;88.07;92216.00;5086224;28;20135;-73
2024/03/25 11:14:28;;;;;;;6.93;5.90;;;;;;;6.51;89.72;92183.19;5097560;28;20047;-73
2024/03/25 11:16:54;;;;;;;4.93;4.43;;;;;;;6.50;85.61;92178.28;5094805;28;20408;-73
2024/03/25 11:19:25;;;;;;;8.70;6.60;;;;;;;6.87;86.85;92187.78;5096568;28;20119;-73
2024/03/25 11:21:50;;;;;;;6.30;5.15;;;;;;;6.87;85.71;92198.78;5093223;28;20048;-73
2024/03/25 11:24:26;;;;;;;6.18;5.05;;;;;;;6.45;87.18;92173.03;5094537;28;20028;-73
2024/03/25 11:26:53;;;;;;;5.80;4.90;;;;;;;6.91;89.11;92215.22;5097194;28;20571;-73
2024/03/25 11:29:18;;;;;;;6.68;4.95;;;;;;;6.82;87.77;92214.72;5090831;28;20040;-73
2024/03/25 11:31:45;;;;;;;6.65;5.03;;;;;;;7.02;87.40;92187.41;5096900;28;20073;-73
2024/03/25 11:34:10;;;;;;;;;;;;;;;6.90;85.19;92230.75;5106889;28;20027;-73
2024/03/25 11:36:35;;;;;;;7.57;5.00;;;;;;;6.60;86.11;92221.19;5094030;27;20442;-73
2024/03/25 11:39:04;;;;;;;12.25;5.38;;;;;;;6.70;85.65;92231.72;5098741;28;20027;-73
2024/03/25 11:41:32;;;;;;;8.30;5.22;;;;;;;6.77;85.36;92193.38;5104763;28;20127;-73
2024/03/25 11:43:58;;;;;;;5.90;5.30;;;;;;;6.44;83.20;92187.59;5092742;28;20036;-73
2024/03/25 11:46:27;;;;;;;7.95;5.88;;;;;;;6.79;85.56;92189.63;5097319;28;20020;-73
2024/03/25 11:48:55;;;;;;;8.95;5.88;;;;;;;6.88;84.08;92223.31;5104466;28;20035;-73
2024/03/25 11:51:21;;;;;;;6.65;4.93;;;;;;;7.12;84.40;92236.22;5089518;28;20047;-73
2024/03/25 11:53:46;;;;;;;6.88;4.85;;;;;;;6.75;82.89;92201.22;5089795;28;20487;-73
2024/03/25 11:56:13;;;;;;;11.50;4.63;;;;;;;6.92;86.16;92221.09;5102010;28;20115;-73
2024/03/25 11:58:39;;;;;;;8.40;6.28;;;;;;;7.15;89.12;92181.38;5099376;28;20147;-73
2024/03/25 12:01:04;;;;;;;7.95;5.05;;;;;;;7.66;83.85;92233.09;5091303;28;20103;-73
2024/03/25 12:03:30;;;;;;;6.93;3.92;;;;;;;7.37;83.87;92191.16;5095284;28;20050;-73
2024/03/25 12:05:56;;;;;;;4.95;3.88;;;;;;;7.03;78.30;92146.34;5091643;28;20459;-73
2024/03/25 12:08:26;;;;;;;4.97;3.20;;;;;;;7.75;78.17;92238.69;5088638;28;20047;-73
2024/03/25 12:13:40;;;;;;;4.10;3.20;;;;;;;7.71;78.28;92224.75;5091639;28;20076;-73